Time;durP1;ratioP1;P1;durP2;ratioP2;P2;SDS_P1;SDS_P2;PMS_P1;PMS_P2;Temp;Humidity;BMP_temperature;BMP_pressure;BME280_temperature;BME280_humidity;BME280_pressure;Samples;Min_cycle;Max_cycle;Signal;HPM_P1;HPM_P2
2021/10/31 00:00:11;;;;;;;19.20;8.60;;;11.90;99.90;;;;;;4946858;29;20031;-73
2021/10/31 00:02:37;;;;;;;24.98;9.45;;;11.90;99.90;;;;;;4946515;29;20094;-74
2021/10/31 00:05:03;;;;;;;25.20;8.38;;;11.90;99.90;;;;;;4946638;29;20028;-72
2021/10/31 00:07:29;;;;;;;19.48;8.07;;;11.90;99.90;;;;;;4946538;29;20121;-73
2021/10/31 00:09:55;;;;;;;22.15;8.43;;;11.90;99.90;;;;;;4946237;29;20032;-74
2021/10/31 00:12:20;;;;;;;17.73;8.35;;;11.90;99.90;;;;;;4960963;29;20028;-75
2021/10/31 00:14:46;;;;;;;20.65;9.27;;;11.80;99.90;;;;;;4946560;29;20027;-73
2021/10/31 00:17:11;;;;;;;19.98;9.27;;;11.80;99.90;;;;;;4945921;29;20528;-73
2021/10/31 00:19:37;;;;;;;17.83;9.32;;;11.80;99.90;;;;;;4946220;29;20047;-73
2021/10/31 00:22:03;;;;;;;19.45;8.60;;;11.70;99.90;;;;;;4945979;29;20059;-73
2021/10/31 00:24:29;;;;;;;17.45;8.55;;;11.70;99.90;;;;;;4945732;29;20028;-73
2021/10/31 00:26:54;;;;;;;20.02;8.85;;;11.70;99.90;;;;;;4960947;29;20573;-71
2021/10/31 00:29:20;;;;;;;23.80;10.70;;;11.60;99.90;;;;;;4946070;29;20027;-72
2021/10/31 00:31:46;;;;;;;20.83;8.05;;;11.60;99.90;;;;;;4945937;29;20035;-73
2021/10/31 00:34:11;;;;;;;23.83;9.63;;;11.70;99.90;;;;;;4945037;29;20036;-71
2021/10/31 00:36:38;;;;;;;22.83;9.43;;;11.50;99.90;;;;;;4945899;29;20043;-73
2021/10/31 00:39:05;;;;;;;22.33;9.63;;;11.50;99.90;;;;;;4945675;29;20047;-73
2021/10/31 00:41:32;;;;;;;31.77;12.63;;;11.50;99.90;;;;;;4946207;29;20438;-72
2021/10/31 00:43:58;;;;;;;24.02;10.25;;;11.50;99.90;;;;;;4945883;29;20092;-73
2021/10/31 00:46:24;;;;;;;20.95;8.32;;;11.50;99.90;;;;;;4945997;29;20028;-73
2021/10/31 00:48:50;;;;;;;21.65;9.30;;;11.50;99.90;;;;;;4945476;29;20031;-73
2021/10/31 00:51:16;;;;;;;20.30;9.02;;;11.50;99.90;;;;;;4945782;29;20186;-73
2021/10/31 00:53:44;;;;;;;17.08;7.93;;;11.50;99.90;;;;;;4945320;29;20034;-73
2021/10/31 00:56:11;;;;;;;22.65;9.35;;;11.50;99.90;;;;;;4945802;29;20034;-73
2021/10/31 00:58:37;;;;;;;30.23;8.38;;;11.50;99.90;;;;;;4945203;29;20036;-73
2021/10/31 01:01:04;;;;;;;17.23;7.97;;;11.50;99.90;;;;;;4946037;29;20027;-72
2021/10/31 01:03:30;;;;;;;27.30;8.63;;;11.50;99.90;;;;;;4945256;29;20035;-73
2021/10/31 01:06:20;;;;;;;23.83;9.88;;;11.50;99.90;;;;;;4944869;29;20365;-71
2021/10/31 01:08:51;;;;;;;23.08;8.43;;;11.50;99.90;;;;;;4945263;29;20031;-73
2021/10/31 01:11:54;;;;;;;17.05;8.35;;;11.50;99.90;;;;;;4960422;29;20034;-74
2021/10/31 01:14:35;;;;;;;18.23;8.77;;;11.50;99.90;;;;;;4945354;29;20032;-72
2021/10/31 01:17:29;;;;;;;20.00;9.25;;;11.50;99.90;;;;;;4945719;29;20028;-72
2021/10/31 01:20:15;;;;;;;21.77;9.23;;;11.50;99.90;;;;;;4919365;29;20056;-72
2021/10/31 01:23:12;;;;;;;20.02;9.63;;;11.50;99.90;;;;;;4945230;29;20103;-75
2021/10/31 01:25:56;;;;;;;20.35;9.70;;;11.50;99.90;;;;;;4945611;29;20055;-73
2021/10/31 01:28:45;;;;;;;24.73;10.52;;;11.50;99.90;;;;;;4945625;29;20028;-73
2021/10/31 01:31:27;;;;;;;22.10;9.10;;;11.60;99.90;;;;;;4945349;29;20035;-74
2021/10/31 01:34:25;;;;;;;18.67;8.93;;;11.60;99.90;;;;;;4959631;29;20040;-73
2021/10/31 01:37:02;;;;;;;21.73;9.57;;;11.60;99.90;;;;;;4922940;29;20040;-73
2021/10/31 01:40:19;;;;;;;28.80;11.05;;;11.60;99.90;;;;;;4945313;29;20039;-73
2021/10/31 01:43:18;;;;;;;23.88;10.15;;;11.60;99.90;;;;;;4928125;29;20091;-73
2021/10/31 01:45:56;;;;;;;25.10;10.43;;;11.60;99.90;;;;;;4944703;29;20027;-73
2021/10/31 01:48:57;;;;;;;21.88;9.55;;;11.60;99.90;;;;;;4944934;29;20026;-74
2021/10/31 01:51:46;;;;;;;24.33;11.13;;;11.70;99.90;;;;;;4909429;29;20125;-74
2021/10/31 01:54:22;;;;;;;25.85;10.73;;;11.60;99.90;;;;;;4944629;29;20499;-73
2021/10/31 01:56:54;;;;;;;25.10;11.52;;;11.70;99.90;;;;;;4945198;29;20020;-73
2021/10/31 01:59:27;;;;;;;25.33;10.52;;;11.70;99.90;;;;;;4945007;29;20063;-73
2021/10/31 02:01:55;;;;;;;19.98;9.23;;;11.70;99.90;;;;;;4959650;29;20036;-73
2021/10/31 02:04:23;;;;;;;23.40;11.38;;;11.70;99.90;;;;;;4945067;29;20071;-72
2021/10/31 02:06:50;;;;;;;24.73;10.70;;;11.70;99.90;;;;;;4945276;29;20034;-72
2021/10/31 02:09:19;;;;;;;24.70;11.18;;;11.70;99.90;;;;;;4959193;29;20036;-73
2021/10/31 02:11:46;;;;;;;24.15;11.18;;;11.80;99.90;;;;;;4959307;29;20043;-72
2021/10/31 02:14:13;;;;;;;26.63;12.30;;;11.70;99.90;;;;;;4944926;29;20024;-74
2021/10/31 02:16:41;;;;;;;21.63;9.65;;;11.70;99.90;;;;;;4944883;29;20118;-74
2021/10/31 02:19:20;;;;;;;22.67;10.63;;;11.70;99.90;;;;;;4948611;29;20044;-73
2021/10/31 02:21:47;;;;;;;23.02;10.77;;;11.70;99.90;;;;;;4948154;29;20076;-73
2021/10/31 02:24:13;;;;;;;29.95;11.60;;;11.70;99.90;;;;;;4962898;29;20024;-73
2021/10/31 02:26:39;;;;;;;24.13;11.93;;;11.70;99.90;;;;;;4948565;29;20042;-72
2021/10/31 02:29:08;;;;;;;25.73;11.00;;;11.60;99.90;;;;;;4948452;29;20047;-72
2021/10/31 02:31:36;;;;;;;29.40;11.60;;;11.60;99.90;;;;;;4948283;29;20027;-72
2021/10/31 02:34:05;;;;;;;28.30;11.27;;;11.60;99.90;;;;;;4963213;29;20040;-72
2021/10/31 02:36:32;;;;;;;24.52;10.02;;;11.60;99.90;;;;;;4948186;29;20036;-72
2021/10/31 02:39:01;;;;;;;26.48;10.80;;;11.60;99.90;;;;;;4948044;29;20046;-73
2021/10/31 02:41:33;;;;;;;23.92;10.73;;;11.60;99.90;;;;;;4948105;29;20034;-73
2021/10/31 02:43:59;;;;;;;26.98;11.20;;;11.50;99.90;;;;;;4948198;29;20079;-73
2021/10/31 02:46:28;;;;;;;23.20;9.98;;;11.50;99.90;;;;;;4948083;29;20036;-73
2021/10/31 02:48:54;;;;;;;24.27;10.23;;;11.40;99.90;;;;;;4947759;29;20420;-73
2021/10/31 02:51:48;;;;;;;24.30;11.07;;;11.40;99.90;;;;;;4948055;29;20035;-72
2021/10/31 02:54:17;;;;;;;23.30;10.05;;;11.40;99.90;;;;;;4947958;29;20024;-74
2021/10/31 02:56:46;;;;;;;24.95;10.40;;;11.40;99.90;;;;;;4947909;29;20028;-73
2021/10/31 02:59:26;;;;;;;33.45;12.73;;;11.40;99.90;;;;;;4947470;29;20035;-74
2021/10/31 03:01:52;;;;;;;27.75;11.13;;;11.30;99.90;;;;;;4948200;29;20032;-74
2021/10/31 03:04:18;;;;;;;22.33;11.10;;;11.30;99.90;;;;;;4947963;29;20028;-73
2021/10/31 03:06:45;;;;;;;21.33;9.65;;;11.30;99.90;;;;;;4947957;29;20024;-73
2021/10/31 03:09:11;;;;;;;29.42;12.73;;;11.30;99.90;;;;;;4947608;29;20027;-74
2021/10/31 03:11:36;;;;;;;25.63;10.82;;;11.30;99.90;;;;;;4962694;29;20095;-73
2021/10/31 03:14:02;;;;;;;20.35;9.82;;;11.30;99.90;;;;;;4947565;29;20792;-71
2021/10/31 03:16:27;;;;;;;26.08;11.57;;;11.30;99.90;;;;;;4947454;29;20028;-73
2021/10/31 03:18:54;;;;;;;31.92;11.45;;;11.20;99.90;;;;;;4947498;29;20070;-75
2021/10/31 03:21:19;;;;;;;26.85;11.10;;;11.20;99.90;;;;;;4947360;29;20075;-73
2021/10/31 03:23:45;;;;;;;28.30;11.45;;;11.20;99.90;;;;;;4947236;29;20020;-75
2021/10/31 03:26:10;;;;;;;25.40;10.93;;;11.20;99.90;;;;;;4962041;29;20122;-73
2021/10/31 03:28:36;;;;;;;24.88;10.90;;;11.20;99.90;;;;;;4946792;29;20024;-74
2021/10/31 03:31:02;;;;;;;29.48;11.43;;;11.20;99.90;;;;;;4947280;29;20027;-72
2021/10/31 03:33:28;;;;;;;25.27;10.27;;;11.30;99.90;;;;;;4947148;29;20031;-72
2021/10/31 03:35:54;;;;;;;33.03;11.55;;;11.20;99.90;;;;;;4947207;29;20116;-72
2021/10/31 03:38:20;;;;;;;24.85;11.82;;;11.20;99.90;;;;;;4946861;29;20035;-72
2021/10/31 03:40:47;;;;;;;24.48;10.70;;;11.30;99.90;;;;;;4947094;29;20107;-72
2021/10/31 03:43:20;;;;;;;29.23;10.63;;;11.20;99.90;;;;;;4947148;29;20027;-73
2021/10/31 03:45:47;;;;;;;24.48;11.05;;;11.20;99.90;;;;;;4947054;29;20031;-73
2021/10/31 03:48:13;;;;;;;21.80;10.20;;;11.20;99.90;;;;;;4946846;29;20041;-72
2021/10/31 03:50:39;;;;;;;29.45;12.60;;;11.20;99.90;;;;;;4947176;29;20086;-72
2021/10/31 03:53:05;;;;;;;19.77;9.95;;;11.10;99.90;;;;;;4947224;29;20629;-73
2021/10/31 03:55:31;;;;;;;23.20;9.85;;;11.10;99.90;;;;;;4946655;29;20038;-72
2021/10/31 03:57:58;;;;;;;25.85;10.77;;;11.00;99.90;;;;;;4946643;29;20396;-74
2021/10/31 04:00:23;;;;;;;26.02;10.85;;;11.00;99.90;;;;;;4961140;29;20441;-73
2021/10/31 04:02:49;;;;;;;26.80;10.27;;;10.90;99.90;;;;;;4946387;29;20024;-73
2021/10/31 04:05:15;;;;;;;27.30;10.80;;;10.90;99.90;;;;;;4946463;29;20111;-74
2021/10/31 04:07:42;;;;;;;25.05;11.63;;;10.90;99.90;;;;;;4946601;29;20032;-74
2021/10/31 04:10:09;;;;;;;21.60;10.73;;;10.90;99.90;;;;;;4946404;29;20084;-72
2021/10/31 04:12:35;;;;;;;26.05;11.05;;;10.80;99.90;;;;;;4961374;29;20071;-74
2021/10/31 04:15:08;;;;;;;26.52;11.43;;;10.80;99.90;;;;;;4946507;29;20074;-74
2021/10/31 04:17:34;;;;;;;30.27;11.43;;;10.80;99.90;;;;;;4946312;29;20036;-73
2021/10/31 04:20:00;;;;;;;25.73;10.88;;;10.80;99.90;;;;;;4946530;29;20028;-74
2021/10/31 04:22:28;;;;;;;20.30;10.35;;;10.70;99.90;;;;;;4946081;29;20060;-73
2021/10/31 04:24:53;;;;;;;27.85;11.23;;;10.70;99.90;;;;;;4946061;29;20080;-74
2021/10/31 04:27:19;;;;;;;27.23;10.57;;;10.70;99.90;;;;;;4960841;29;20032;-73
2021/10/31 04:29:45;;;;;;;31.55;11.63;;;10.70;99.90;;;;;;4960881;29;20024;-75
2021/10/31 04:32:11;;;;;;;25.80;10.70;;;10.70;99.90;;;;;;4945748;29;20028;-74
2021/10/31 04:34:37;;;;;;;23.48;11.65;;;10.60;99.90;;;;;;4946322;29;20024;-74
2021/10/31 04:37:03;;;;;;;25.55;11.00;;;10.60;99.90;;;;;;4960498;29;20032;-73
2021/10/31 04:39:29;;;;;;;20.67;9.68;;;10.60;99.90;;;;;;4945899;29;20039;-73
2021/10/31 04:42:02;;;;;;;26.40;10.77;;;10.60;99.90;;;;;;4945844;29;20031;-73
2021/10/31 04:44:28;;;;;;;20.27;10.27;;;10.50;99.90;;;;;;4946020;29;20024;-72
2021/10/31 04:46:53;;;;;;;25.42;11.30;;;10.50;99.90;;;;;;4945918;29;20043;-72
2021/10/31 04:49:19;;;;;;;26.15;11.07;;;10.50;99.90;;;;;;4945770;29;20042;-73
2021/10/31 04:51:44;;;;;;;24.50;10.88;;;10.40;99.90;;;;;;4945953;29;20473;-74
2021/10/31 04:54:10;;;;;;;23.98;9.77;;;10.40;99.90;;;;;;4960344;29;20028;-73
2021/10/31 04:56:37;;;;;;;23.20;11.55;;;10.40;99.90;;;;;;4960540;29;20031;-75
2021/10/31 04:59:03;;;;;;;36.97;10.88;;;10.30;99.90;;;;;;4945087;29;20086;-72
2021/10/31 05:01:29;;;;;;;89.15;10.85;;;10.30;99.90;;;;;;4945756;29;20031;-73
2021/10/31 05:03:54;;;;;;;44.40;11.50;;;10.20;99.90;;;;;;4959938;29;20028;-72
2021/10/31 05:06:26;;;;;;;51.03;11.35;;;10.20;99.90;;;;;;4945888;29;20035;-75
2021/10/31 05:08:52;;;;;;;46.90;10.02;;;10.20;99.90;;;;;;4944748;29;20023;-72
2021/10/31 05:11:17;;;;;;;27.17;9.50;;;10.10;99.90;;;;;;4945999;29;20031;-73
2021/10/31 05:13:44;;;;;;;27.27;8.40;;;10.10;99.90;;;;;;4945115;29;20031;-73
2021/10/31 05:16:09;;;;;;;20.63;9.95;;;10.10;99.90;;;;;;4945638;29;20082;-73
2021/10/31 05:18:36;;;;;;;21.42;10.07;;;10.00;99.90;;;;;;4960281;29;20115;-73
2021/10/31 05:21:02;;;;;;;28.27;11.45;;;10.10;99.90;;;;;;4945824;29;20055;-73
2021/10/31 05:23:28;;;;;;;27.98;10.52;;;10.10;99.90;;;;;;4959320;29;20055;-72
2021/10/31 05:25:54;;;;;;;27.33;11.40;;;10.00;99.90;;;;;;4944702;29;20304;-73
2021/10/31 05:28:20;;;;;;;17.95;10.10;;;10.00;99.90;;;;;;4945244;29;20051;-75
2021/10/31 05:30:46;;;;;;;28.05;10.77;;;10.10;99.90;;;;;;4945122;29;20127;-73
2021/10/31 05:33:12;;;;;;;26.63;10.05;;;10.00;99.90;;;;;;4945172;29;20491;-73
2021/10/31 05:35:38;;;;;;;36.92;11.30;;;10.00;99.90;;;;;;4945539;29;20042;-74
2021/10/31 05:38:06;;;;;;;25.70;8.85;;;10.00;99.90;;;;;;4945169;29;20042;-72
2021/10/31 05:40:31;;;;;;;34.00;11.27;;;10.10;99.90;;;;;;4945399;29;20091;-72
2021/10/31 05:42:57;;;;;;;22.45;9.80;;;10.00;99.90;;;;;;4945519;29;20036;-74
2021/10/31 05:45:24;;;;;;;27.23;10.95;;;10.00;99.90;;;;;;4959933;29;20036;-73
2021/10/31 05:47:52;;;;;;;26.23;10.70;;;10.10;99.90;;;;;;4944719;29;20027;-73
2021/10/31 05:50:18;;;;;;;24.27;10.38;;;10.10;99.90;;;;;;4945170;29;20028;-73
2021/10/31 05:52:45;;;;;;;24.70;10.23;;;10.10;99.90;;;;;;4946635;29;20034;-73
2021/10/31 05:55:13;;;;;;;24.52;10.77;;;10.10;99.90;;;;;;4948448;29;20528;-73
2021/10/31 05:57:40;;;;;;;25.60;10.73;;;10.10;99.90;;;;;;4963551;29;20081;-73
2021/10/31 06:00:07;;;;;;;23.20;9.13;;;10.00;99.90;;;;;;4948955;29;20035;-73
2021/10/31 06:02:33;;;;;;;31.95;9.88;;;10.00;99.90;;;;;;4963210;29;20032;-73
2021/10/31 06:04:59;;;;;;;29.45;10.52;;;10.00;99.90;;;;;;4948987;29;20046;-74
2021/10/31 06:07:29;;;;;;;28.38;10.50;;;10.00;99.90;;;;;;4948588;29;20789;-72
2021/10/31 06:09:55;;;;;;;24.50;11.40;;;10.00;99.90;;;;;;4963019;29;20523;-73
2021/10/31 06:12:20;;;;;;;19.83;8.48;;;10.00;99.90;;;;;;4948519;29;20032;-72
2021/10/31 06:14:46;;;;;;;22.98;9.80;;;10.00;99.90;;;;;;4948654;29;20036;-74
2021/10/31 06:17:12;;;;;;;21.20;9.20;;;10.00;99.90;;;;;;4963304;29;20480;-73
2021/10/31 06:19:38;;;;;;;26.75;10.60;;;9.90;99.90;;;;;;4939206;29;20047;-74
2021/10/31 06:22:05;;;;;;;21.95;9.52;;;9.90;99.90;;;;;;4953077;29;20056;-74
2021/10/31 06:24:31;;;;;;;28.38;11.50;;;9.90;99.90;;;;;;4946101;29;20083;-73
2021/10/31 06:26:58;;;;;;;20.80;10.88;;;9.90;99.90;;;;;;4948070;29;20070;-74
2021/10/31 06:29:24;;;;;;;28.05;9.18;;;9.90;99.90;;;;;;4947878;29;20024;-73
2021/10/31 06:31:50;;;;;;;15.77;8.23;;;9.90;99.90;;;;;;4945982;29;20155;-73
2021/10/31 06:34:16;;;;;;;22.58;9.70;;;9.90;99.90;;;;;;4956484;29;20034;-74
2021/10/31 06:36:42;;;;;;;27.00;10.27;;;9.90;99.90;;;;;;4935920;29;20473;-74
2021/10/31 06:39:09;;;;;;;22.67;10.30;;;9.80;99.90;;;;;;4944750;29;20047;-74
2021/10/31 06:41:35;;;;;;;19.23;8.73;;;9.80;99.90;;;;;;4947335;28;20023;-73
2021/10/31 06:44:00;;;;;;;18.75;8.30;;;9.80;99.90;;;;;;4953401;29;20029;-74
2021/10/31 06:46:26;;;;;;;30.30;11.43;;;9.80;99.90;;;;;;4953180;29;20046;-74
2021/10/31 06:48:52;;;;;;;20.60;9.75;;;9.80;99.90;;;;;;4952759;29;20504;-74
2021/10/31 06:51:19;;;;;;;22.98;8.93;;;9.80;99.90;;;;;;4953361;29;20030;-73
2021/10/31 06:53:45;;;;;;;28.38;10.88;;;9.80;99.90;;;;;;4953983;28;20043;-73
2021/10/31 06:56:11;;;;;;;19.05;9.15;;;9.80;99.90;;;;;;4955819;29;20039;-74
2021/10/31 06:58:38;;;;;;;23.88;10.02;;;9.80;99.90;;;;;;4947552;29;20051;-74
2021/10/31 07:01:03;;;;;;;31.45;9.95;;;9.80;99.90;;;;;;4946613;29;20032;-74
2021/10/31 07:03:29;;;;;;;20.13;8.38;;;9.90;99.90;;;;;;4932636;29;20071;-73
2021/10/31 07:05:55;;;;;;;21.15;8.98;;;9.90;99.90;;;;;;4934308;29;20481;-73
2021/10/31 07:08:21;;;;;;;17.23;8.25;;;9.80;99.90;;;;;;4935075;29;20037;-74
2021/10/31 07:10:46;;;;;;;18.15;9.02;;;9.80;99.90;;;;;;4946620;29;20040;-74
2021/10/31 07:13:12;;;;;;;22.52;8.95;;;9.80;99.90;;;;;;4947410;29;20512;-74
2021/10/31 07:15:41;;;;;;;20.38;8.98;;;9.80;99.90;;;;;;4945074;29;20468;-75
2021/10/31 07:18:06;;;;;;;16.27;7.50;;;9.80;99.90;;;;;;4945489;29;20062;-75
2021/10/31 07:20:32;;;;;;;22.98;9.48;;;9.80;99.90;;;;;;4953089;29;20032;-75
2021/10/31 07:22:58;;;;;;;22.88;9.65;;;9.70;99.90;;;;;;4947465;29;20083;-75
2021/10/31 07:25:27;;;;;;;21.75;9.48;;;9.70;99.90;;;;;;4946615;29;20026;-74
2021/10/31 07:27:53;;;;;;;24.98;11.13;;;9.80;99.90;;;;;;4946314;29;20124;-74
2021/10/31 07:30:19;;;;;;;29.00;10.57;;;9.80;99.90;;;;;;4947364;29;20032;-74
2021/10/31 07:32:53;;;;;;;24.73;9.93;;;9.90;99.90;;;;;;4947332;29;20082;-74
2021/10/31 07:35:19;;;;;;;25.33;10.98;;;9.90;99.90;;;;;;4946326;29;20051;-73
2021/10/31 07:37:44;;;;;;;24.17;10.32;;;10.00;99.90;;;;;;4941828;29;20044;-74
2021/10/31 07:40:10;;;;;;;24.08;9.23;;;10.00;99.90;;;;;;4928022;29;20063;-73
2021/10/31 07:42:37;;;;;;;29.50;9.73;;;10.00;99.90;;;;;;4941724;29;20042;-76
2021/10/31 07:45:04;;;;;;;19.88;7.75;;;10.00;99.90;;;;;;4928309;29;20657;-73
2021/10/31 07:47:29;;;;;;;21.70;8.70;;;10.00;99.90;;;;;;4942118;29;20036;-73
2021/10/31 07:49:55;;;;;;;21.70;8.27;;;10.00;99.90;;;;;;4948281;29;20027;-73
2021/10/31 07:52:22;;;;;;;17.75;7.90;;;9.90;99.90;;;;;;4961048;29;20032;-74
2021/10/31 07:54:49;;;;;;;22.30;8.50;;;10.00;99.90;;;;;;4947286;29;20063;-74
2021/10/31 07:57:18;;;;;;;24.48;10.07;;;10.00;99.90;;;;;;4947501;29;20108;-74
2021/10/31 07:59:44;;;;;;;19.15;8.27;;;10.00;99.90;;;;;;4925254;29;20055;-73
2021/10/31 08:02:10;;;;;;;25.50;8.68;;;10.00;99.90;;;;;;4935170;29;20047;-74
2021/10/31 08:04:36;;;;;;;18.83;8.52;;;10.10;99.90;;;;;;4946483;29;20015;-75
2021/10/31 08:07:02;;;;;;;33.08;9.95;;;10.10;99.90;;;;;;4939883;29;20489;-75
2021/10/31 08:09:35;;;;;;;19.95;9.73;;;10.20;99.90;;;;;;4941632;29;20035;-74
2021/10/31 08:12:01;;;;;;;19.70;8.05;;;10.30;99.90;;;;;;4942187;29;20024;-72
2021/10/31 08:14:26;;;;;;;27.75;10.75;;;10.50;99.90;;;;;;4927729;29;20076;-72
2021/10/31 08:16:52;;;;;;;24.13;10.40;;;10.70;99.90;;;;;;4927969;29;20075;-71
2021/10/31 08:19:24;;;;;;;20.45;9.45;;;10.80;99.90;;;;;;4929020;29;20078;-72
2021/10/31 08:21:51;;;;;;;36.10;9.68;;;10.90;99.90;;;;;;4941995;29;20051;-72
2021/10/31 08:24:16;;;;;;;17.25;8.48;;;11.00;99.90;;;;;;4938597;29;20034;-73
2021/10/31 08:26:42;;;;;;;20.42;8.15;;;11.00;99.90;;;;;;4938775;29;20084;-74
2021/10/31 08:29:10;;;;;;;21.08;8.57;;;11.00;99.90;;;;;;4927087;29;20135;-74
2021/10/31 08:31:40;;;;;;;21.17;9.15;;;11.10;99.90;;;;;;4944883;29;20027;-73
2021/10/31 08:34:06;;;;;;;26.27;9.50;;;11.10;99.90;;;;;;4942991;29;20024;-73
2021/10/31 08:36:41;;;;;;;22.88;8.93;;;11.20;99.90;;;;;;4937240;29;20028;-74
2021/10/31 08:39:07;;;;;;;20.00;9.15;;;11.20;99.90;;;;;;4944805;29;20043;-73
2021/10/31 08:41:37;;;;;;;27.83;9.38;;;11.30;99.90;;;;;;4943763;29;20027;-74
2021/10/31 08:44:03;;;;;;;21.92;9.30;;;11.40;99.90;;;;;;4944593;29;20043;-72
2021/10/31 08:46:30;;;;;;;20.90;10.38;;;11.40;99.90;;;;;;4956788;29;20142;-74
2021/10/31 08:48:57;;;;;;;19.85;9.82;;;11.50;99.90;;;;;;4927299;29;20529;-73
2021/10/31 08:51:26;;;;;;;25.90;10.45;;;11.70;99.90;;;;;;4941688;29;20043;-73
2021/10/31 08:53:56;;;;;;;41.38;10.38;;;11.70;99.90;;;;;;4936609;29;20034;-73
2021/10/31 08:56:27;;;;;;;24.08;10.82;;;11.80;99.90;;;;;;4943735;29;20039;-74
2021/10/31 08:58:53;;;;;;;21.90;8.57;;;11.90;99.90;;;;;;4945699;29;20043;-73
2021/10/31 09:01:18;;;;;;;23.08;9.75;;;11.90;99.90;;;;;;4944545;29;20030;-75
2021/10/31 09:03:47;;;;;;;29.63;10.15;;;11.90;99.90;;;;;;4944683;29;20031;-73
2021/10/31 09:06:13;;;;;;;24.08;9.93;;;11.90;99.90;;;;;;4942908;29;20020;-74
2021/10/31 09:08:41;;;;;;;24.88;9.95;;;12.00;99.90;;;;;;4945127;29;20036;-74
2021/10/31 09:11:10;;;;;;;27.80;9.32;;;12.10;99.90;;;;;;4940915;29;20032;-73
2021/10/31 09:13:37;;;;;;;17.95;9.23;;;12.10;99.90;;;;;;4926759;29;20028;-74
2021/10/31 09:16:03;;;;;;;36.10;11.13;;;12.20;99.90;;;;;;4926759;29;20036;-73
2021/10/31 09:18:31;;;;;;;24.88;9.35;;;12.20;99.90;;;;;;4926260;29;20036;-72
2021/10/31 09:20:56;;;;;;;21.20;10.07;;;12.30;99.90;;;;;;4940885;29;20044;-74
2021/10/31 09:23:23;;;;;;;24.02;10.10;;;12.40;99.90;;;;;;4959014;29;20047;-74
2021/10/31 09:25:50;;;;;;;29.10;10.75;;;12.50;99.90;;;;;;4945260;29;20051;-74
2021/10/31 09:28:25;;;;;;;21.60;8.95;;;12.70;99.90;;;;;;4944471;29;20027;-74
2021/10/31 09:30:51;;;;;;;17.75;8.77;;;12.80;99.90;;;;;;4943684;29;20035;-75
2021/10/31 09:33:16;;;;;;;32.90;10.80;;;12.80;99.90;;;;;;4940903;29;20024;-74
2021/10/31 09:35:47;;;;;;;21.80;8.27;;;12.90;99.90;;;;;;4926193;29;20079;-76
2021/10/31 09:38:20;;;;;;;24.15;9.75;;;12.90;99.90;;;;;;4957613;29;20483;-75
2021/10/31 09:40:57;;;;;;;17.58;8.95;;;12.90;99.90;;;;;;4944372;29;20055;-74
2021/10/31 09:43:26;;;;;;;20.40;9.15;;;12.90;99.90;;;;;;4925969;29;20028;-75
2021/10/31 09:45:52;;;;;;;29.17;9.93;;;12.90;99.90;;;;;;4942206;29;20059;-77
2021/10/31 09:48:18;;;;;;;22.38;8.23;;;13.00;99.90;;;;;;4944434;29;20032;-76
2021/10/31 09:50:50;;;;;;;19.80;8.48;;;13.00;99.90;;;;;;4945244;29;20433;-76
2021/10/31 09:53:19;;;;;;;17.70;7.70;;;13.10;99.90;;;;;;4944492;29;20031;-75
2021/10/31 09:55:47;;;;;;;21.48;7.93;;;13.30;99.90;;;;;;4956241;29;20024;-76
2021/10/31 09:58:37;;;;;;;15.52;6.63;;;13.30;99.90;;;;;;4949161;29;20055;-71
2021/10/31 10:01:06;;;;;;;17.30;7.82;;;13.30;99.90;;;;;;4936023;29;20036;-73
2021/10/31 10:06:18;;;;;;;14.38;7.07;;;13.30;99.90;;;;;;4925780;29;20496;-74
2021/10/31 10:08:58;;;;;;;;;;;13.30;99.90;;;;;;4926353;29;20039;-74
2021/10/31 10:11:24;;;;;;;18.48;5.95;;;13.30;99.90;;;;;;4940367;29;19938;-74
2021/10/31 10:14:10;;;;;;;15.63;7.18;;;13.40;99.90;;;;;;4925914;29;20048;-77
2021/10/31 10:16:36;;;;;;;11.50;5.38;;;13.50;99.90;;;;;;4926058;29;20076;-75
2021/10/31 10:19:17;;;;;;;13.45;5.80;;;13.60;99.90;;;;;;4925607;29;20088;-74
2021/10/31 10:21:43;;;;;;;13.52;6.38;;;13.70;99.90;;;;;;4939495;29;20080;-76
2021/10/31 10:24:12;;;;;;;12.68;5.93;;;13.80;99.90;;;;;;4939963;29;20032;-76
2021/10/31 10:26:45;;;;;;;17.95;7.18;;;13.80;99.90;;;;;;4942936;29;20180;-77
2021/10/31 10:29:26;;;;;;;13.43;6.28;;;13.90;99.90;;;;;;4939734;29;20055;-74
2021/10/31 10:32:04;;;;;;;10.55;5.03;;;13.90;99.90;;;;;;4944813;29;20034;-75
2021/10/31 10:37:16;;;;;;;13.68;6.50;;;13.80;99.90;;;;;;4944380;29;20032;-77
2021/10/31 10:39:46;;;;;;;8.73;4.68;;;13.80;99.90;;;;;;4927685;29;20135;-76
2021/10/31 10:42:43;;;;;;;9.93;5.13;;;13.80;99.90;;;;;;4928632;29;20100;-76
2021/10/31 10:45:11;;;;;;;12.52;5.93;;;13.80;99.90;;;;;;4928407;29;20056;-76
2021/10/31 10:47:48;;;;;;;13.20;5.32;;;13.90;99.90;;;;;;4938959;29;20030;-76
2021/10/31 10:50:24;;;;;;;13.20;5.30;;;14.00;99.90;;;;;;4947713;29;20047;-77
2021/10/31 10:52:50;;;;;;;10.90;5.28;;;14.10;99.90;;;;;;4962566;29;20038;-75
2021/10/31 10:55:28;;;;;;;12.02;5.75;;;14.20;99.90;;;;;;4946418;29;20409;-77
2021/10/31 10:58:20;;;;;;;9.55;5.00;;;14.30;99.90;;;;;;4947323;29;20036;-75
2021/10/31 11:00:49;;;;;;;14.02;6.10;;;14.60;99.90;;;;;;4944901;29;20036;-75
2021/10/31 11:03:20;;;;;;;10.35;5.05;;;14.80;99.90;;;;;;4947446;29;20028;-78
2021/10/31 11:05:50;;;;;;;13.25;6.32;;;14.90;99.90;;;;;;4962174;29;20035;-79
2021/10/31 11:08:20;;;;;;;8.90;4.68;;;15.20;99.90;;;;;;4961529;29;20035;-76
2021/10/31 11:10:50;;;;;;;10.48;5.20;;;15.30;99.90;;;;;;4947692;29;20051;-74
2021/10/31 11:13:16;;;;;;;10.02;5.22;;;15.40;99.90;;;;;;4961783;29;20027;-74
2021/10/31 11:15:42;;;;;;;12.05;5.47;;;15.50;99.90;;;;;;4947331;29;20047;-77
2021/10/31 11:18:10;;;;;;;11.25;5.60;;;15.40;99.90;;;;;;4946055;29;20043;-76
2021/10/31 11:20:44;;;;;;;10.23;5.40;;;15.70;99.90;;;;;;4941973;29;20117;-78
2021/10/31 11:23:13;;;;;;;9.45;4.88;;;15.80;99.90;;;;;;4933248;29;20063;-76
2021/10/31 11:25:45;;;;;;;15.93;5.72;;;15.80;99.90;;;;;;4929981;29;20028;-75
2021/10/31 11:28:43;;;;;;;11.10;5.57;;;15.90;99.90;;;;;;5075580;27;1274598;-73
2021/10/31 11:31:09;;;;;;;11.85;5.35;;;16.00;99.90;;;;;;5099330;28;20124;-74
2021/10/31 11:33:36;;;;;;;14.85;5.07;;;16.00;99.90;;;;;;5100800;28;20056;-73
2021/10/31 11:36:02;;;;;;;10.68;4.95;;;16.10;99.90;;;;;;5098614;28;20032;-74
2021/10/31 11:38:30;;;;;;;9.23;4.60;;;16.20;99.90;;;;;;5099943;28;20046;-75
2021/10/31 11:40:56;;;;;;;12.82;5.55;;;16.40;99.90;;;;;;5100515;28;20036;-74
2021/10/31 11:43:24;;;;;;;16.30;6.18;;;16.50;99.90;;;;;;5098621;28;20024;-74
2021/10/31 11:45:52;;;;;;;10.38;5.05;;;16.50;99.90;;;;;;5100721;28;20024;-72
2021/10/31 11:48:23;;;;;;;10.93;5.20;;;16.50;99.90;;;;;;5099909;28;20040;-74
2021/10/31 11:51:11;;;;;;;12.20;5.00;;;16.50;99.90;;;;;;5112258;28;20383;-74
2021/10/31 11:53:40;;;;;;;11.23;5.20;;;16.60;99.90;;;;;;5113112;28;20020;-76
2021/10/31 11:56:24;;;;;;;10.00;4.47;;;16.60;99.90;;;;;;5114157;28;20146;-76
2021/10/31 11:59:12;;;;;;;9.70;4.57;;;16.60;99.90;;;;;;5119986;28;20019;-76
2021/10/31 12:01:59;;;;;;;9.38;4.65;;;16.50;99.90;;;;;;5114508;28;20350;-77
2021/10/31 12:05:08;;;;;;;10.13;5.07;;;16.30;99.90;;;;;;5120038;28;20039;-74
2021/10/31 12:07:43;;;;;;;8.35;4.57;;;16.20;99.90;;;;;;5118248;28;20036;-73
2021/10/31 12:10:26;;;;;;;10.02;5.38;;;16.00;99.90;;;;;;5120253;28;20024;-74
2021/10/31 12:13:12;;;;;;;6.57;4.10;;;15.80;99.90;;;;;;5117957;28;20109;-72
2021/10/31 12:15:38;;;;;;;8.48;4.47;;;16.00;99.90;;;;;;5119314;28;20032;-74
2021/10/31 12:18:08;;;;;;;9.13;4.50;;;16.10;99.90;;;;;;5118732;28;20031;-76
2021/10/31 12:20:53;;;;;;;10.80;5.28;;;16.20;99.90;;;;;;5085682;28;20078;-80
2021/10/31 12:23:21;;;;;;;9.35;4.75;;;16.30;99.90;;;;;;5057746;28;20029;-76
2021/10/31 12:25:48;;;;;;;7.70;3.60;;;16.30;99.90;;;;;;5058316;28;20428;-74
2021/10/31 12:28:41;;;;;;;7.22;4.20;;;16.40;99.90;;;;;;5079422;28;20080;-75
2021/10/31 12:31:28;;;;;;;6.93;4.07;;;16.30;99.90;;;;;;5065595;28;20060;-77
2021/10/31 12:34:16;;;;;;;6.30;3.42;;;16.10;99.90;;;;;;5062213;28;20108;-74
2021/10/31 12:36:49;;;;;;;7.60;3.97;;;16.10;99.90;;;;;;5056817;28;20063;-74
2021/10/31 12:39:28;;;;;;;8.80;4.07;;;16.20;99.90;;;;;;5060903;28;20117;-78
2021/10/31 12:42:18;;;;;;;7.82;4.05;;;16.20;99.90;;;;;;5045102;28;20025;-75
2021/10/31 12:44:47;;;;;;;8.55;3.92;;;16.40;99.90;;;;;;5044816;28;20030;-74
2021/10/31 12:47:18;;;;;;;5.68;3.85;;;16.70;99.90;;;;;;5061369;28;20041;-76
2021/10/31 12:49:46;;;;;;;10.18;3.97;;;16.90;99.90;;;;;;5064251;28;20028;-74
2021/10/31 12:52:27;;;;;;;7.78;3.38;;;16.90;99.90;;;;;;5065066;28;20021;-74
2021/10/31 12:55:08;;;;;;;8.18;3.85;;;16.70;99.90;;;;;;5065144;28;20048;-74